sensor_id;sensor_type;location;lat;lon;timestamp;P1;durP1;ratioP1;P2;durP2;ratioP2
80836;SDS011;70251;60.008;30.404;2024-02-04T00:02:03;3.65;;;0.40;;
80836;SDS011;70251;60.008;30.404;2024-02-04T00:04:29;4.90;;;0.47;;
80836;SDS011;70251;60.008;30.404;2024-02-04T00:06:57;2.97;;;0.30;;
80836;SDS011;70251;60.008;30.404;2024-02-04T00:09:23;4.00;;;0.30;;
80836;SDS011;70251;60.008;30.404;2024-02-04T00:11:49;3.13;;;0.30;;
80836;SDS011;70251;60.008;30.404;2024-02-04T00:14:14;4.85;;;0.30;;
80836;SDS011;70251;60.008;30.404;2024-02-04T00:16:40;3.08;;;0.30;;
80836;SDS011;70251;60.008;30.404;2024-02-04T00:19:06;1.80;;;0.20;;
80836;SDS011;70251;60.008;30.404;2024-02-04T00:21:33;4.13;;;0.40;;
80836;SDS011;70251;60.008;30.404;2024-02-04T00:23:59;4.13;;;0.40;;
80836;SDS011;70251;60.008;30.404;2024-02-04T00:26:25;6.32;;;0.77;;
80836;SDS011;70251;60.008;30.404;2024-02-04T00:28:50;3.90;;;0.53;;
80836;SDS011;70251;60.008;30.404;2024-02-04T00:31:16;5.32;;;0.47;;
80836;SDS011;70251;60.008;30.404;2024-02-04T00:33:44;4.80;;;0.50;;
80836;SDS011;70251;60.008;30.404;2024-02-04T00:36:09;5.85;;;0.60;;
80836;SDS011;70251;60.008;30.404;2024-02-04T00:38:35;3.27;;;0.40;;
80836;SDS011;70251;60.008;30.404;2024-02-04T00:41:00;7.93;;;0.63;;
80836;SDS011;70251;60.008;30.404;2024-02-04T00:43:26;3.53;;;0.52;;
80836;SDS011;70251;60.008;30.404;2024-02-04T00:45:52;4.70;;;0.50;;
80836;SDS011;70251;60.008;30.404;2024-02-04T00:48:21;3.42;;;0.40;;
80836;SDS011;70251;60.008;30.404;2024-02-04T00:50:47;8.77;;;0.57;;
80836;SDS011;70251;60.008;30.404;2024-02-04T00:53:12;4.65;;;0.35;;
80836;SDS011;70251;60.008;30.404;2024-02-04T00:55:38;4.50;;;0.43;;
80836;SDS011;70251;60.008;30.404;2024-02-04T00:58:04;4.70;;;0.70;;
80836;SDS011;70251;60.008;30.404;2024-02-04T01:00:29;6.67;;;0.40;;
80836;SDS011;70251;60.008;30.404;2024-02-04T01:03:05;3.33;;;0.40;;
80836;SDS011;70251;60.008;30.404;2024-02-04T01:05:30;4.18;;;0.47;;
80836;SDS011;70251;60.008;30.404;2024-02-04T01:07:56;5.80;;;0.70;;
80836;SDS011;70251;60.008;30.404;2024-02-04T01:10:21;3.47;;;0.50;;
80836;SDS011;70251;60.008;30.404;2024-02-04T01:12:47;4.20;;;0.45;;
80836;SDS011;70251;60.008;30.404;2024-02-04T01:15:13;3.67;;;0.50;;
80836;SDS011;70251;60.008;30.404;2024-02-04T01:17:38;9.27;;;1.10;;
80836;SDS011;70251;60.008;30.404;2024-02-04T01:20:04;4.07;;;0.53;;
80836;SDS011;70251;60.008;30.404;2024-02-04T01:22:31;4.05;;;0.43;;
80836;SDS011;70251;60.008;30.404;2024-02-04T01:24:56;7.82;;;0.68;;
80836;SDS011;70251;60.008;30.404;2024-02-04T01:27:22;3.17;;;0.40;;
80836;SDS011;70251;60.008;30.404;2024-02-04T01:29:48;4.20;;;0.47;;
80836;SDS011;70251;60.008;30.404;2024-02-04T01:32:13;4.25;;;0.40;;
80836;SDS011;70251;60.008;30.404;2024-02-04T01:34:39;3.87;;;0.60;;
80836;SDS011;70251;60.008;30.404;2024-02-04T01:37:05;5.18;;;0.77;;
80836;SDS011;70251;60.008;30.404;2024-02-04T01:39:30;5.90;;;0.47;;
80836;SDS011;70251;60.008;30.404;2024-02-04T01:41:56;4.50;;;0.68;;
80836;SDS011;70251;60.008;30.404;2024-02-04T01:44:22;4.10;;;0.40;;
80836;SDS011;70251;60.008;30.404;2024-02-04T01:46:48;5.18;;;0.82;;
80836;SDS011;70251;60.008;30.404;2024-02-04T01:49:14;5.93;;;0.57;;
80836;SDS011;70251;60.008;30.404;2024-02-04T01:51:45;4.35;;;0.45;;
80836;SDS011;70251;60.008;30.404;2024-02-04T01:54:11;4.25;;;0.52;;
80836;SDS011;70251;60.008;30.404;2024-02-04T01:56:37;3.90;;;0.20;;
80836;SDS011;70251;60.008;30.404;2024-02-04T01:59:03;3.05;;;0.20;;
80836;SDS011;70251;60.008;30.404;2024-02-04T02:01:29;4.53;;;0.30;;
80836;SDS011;70251;60.008;30.404;2024-02-04T02:03:54;4.43;;;0.30;;
80836;SDS011;70251;60.008;30.404;2024-02-04T02:06:20;4.20;;;0.30;;
80836;SDS011;70251;60.008;30.404;2024-02-04T02:08:46;3.13;;;0.20;;
80836;SDS011;70251;60.008;30.404;2024-02-04T02:11:26;2.73;;;0.20;;
80836;SDS011;70251;60.008;30.404;2024-02-04T02:14:00;5.47;;;0.35;;
80836;SDS011;70251;60.008;30.404;2024-02-04T02:16:30;3.22;;;0.30;;
80836;SDS011;70251;60.008;30.404;2024-02-04T02:19:03;4.35;;;0.38;;
80836;SDS011;70251;60.008;30.404;2024-02-04T02:24:51;4.47;;;0.70;;
80836;SDS011;70251;60.008;30.404;2024-02-04T02:27:17;6.47;;;0.20;;
80836;SDS011;70251;60.008;30.404;2024-02-04T02:29:42;6.85;;;0.75;;
80836;SDS011;70251;60.008;30.404;2024-02-04T02:32:08;4.03;;;0.20;;
80836;SDS011;70251;60.008;30.404;2024-02-04T02:34:34;7.07;;;0.70;;
80836;SDS011;70251;60.008;30.404;2024-02-04T02:39:40;2.78;;;0.35;;
80836;SDS011;70251;60.008;30.404;2024-02-04T02:42:12;8.10;;;0.47;;
80836;SDS011;70251;60.008;30.404;2024-02-04T02:44:39;3.72;;;0.30;;
80836;SDS011;70251;60.008;30.404;2024-02-04T02:47:06;4.67;;;0.30;;
80836;SDS011;70251;60.008;30.404;2024-02-04T02:52:18;2.53;;;0.38;;
80836;SDS011;70251;60.008;30.404;2024-02-04T02:54:44;4.53;;;0.50;;
80836;SDS011;70251;60.008;30.404;2024-02-04T02:57:09;4.63;;;0.20;;
80836;SDS011;70251;60.008;30.404;2024-02-04T02:59:35;9.43;;;0.60;;
80836;SDS011;70251;60.008;30.404;2024-02-04T03:04:45;4.63;;;0.30;;
80836;SDS011;70251;60.008;30.404;2024-02-04T03:07:10;5.10;;;0.33;;
80836;SDS011;70251;60.008;30.404;2024-02-04T03:09:36;2.15;;;0.20;;
80836;SDS011;70251;60.008;30.404;2024-02-04T03:12:02;3.83;;;0.33;;
80836;SDS011;70251;60.008;30.404;2024-02-04T03:14:28;5.00;;;0.40;;
80836;SDS011;70251;60.008;30.404;2024-02-04T03:16:53;4.13;;;0.30;;
80836;SDS011;70251;60.008;30.404;2024-02-04T03:19:19;4.93;;;0.45;;
80836;SDS011;70251;60.008;30.404;2024-02-04T03:22:04;7.10;;;0.40;;
80836;SDS011;70251;60.008;30.404;2024-02-04T03:24:29;5.80;;;0.68;;
80836;SDS011;70251;60.008;30.404;2024-02-04T03:26:55;2.53;;;0.17;;
80836;SDS011;70251;60.008;30.404;2024-02-04T03:29:24;7.27;;;0.37;;
80836;SDS011;70251;60.008;30.404;2024-02-04T03:31:49;2.83;;;0.10;;
80836;SDS011;70251;60.008;30.404;2024-02-04T03:34:15;3.57;;;0.43;;
80836;SDS011;70251;60.008;30.404;2024-02-04T03:37:01;4.73;;;0.30;;
80836;SDS011;70251;60.008;30.404;2024-02-04T03:39:26;6.18;;;0.47;;
80836;SDS011;70251;60.008;30.404;2024-02-04T03:41:52;2.30;;;0.10;;
80836;SDS011;70251;60.008;30.404;2024-02-04T03:44:18;5.22;;;0.22;;
80836;SDS011;70251;60.008;30.404;2024-02-04T03:46:47;6.07;;;0.43;;
80836;SDS011;70251;60.008;30.404;2024-02-04T03:49:14;4.03;;;0.30;;
80836;SDS011;70251;60.008;30.404;2024-02-04T03:51:44;2.28;;;0.10;;
80836;SDS011;70251;60.008;30.404;2024-02-04T03:54:10;5.95;;;0.35;;
80836;SDS011;70251;60.008;30.404;2024-02-04T03:56:36;4.00;;;0.20;;
80836;SDS011;70251;60.008;30.404;2024-02-04T03:59:01;6.90;;;0.45;;
80836;SDS011;70251;60.008;30.404;2024-02-04T04:01:27;2.33;;;0.20;;
80836;SDS011;70251;60.008;30.404;2024-02-04T04:04:11;5.18;;;0.22;;
80836;SDS011;70251;60.008;30.404;2024-02-04T04:06:48;14.77;;;0.93;;
80836;SDS011;70251;60.008;30.404;2024-02-04T04:09:13;3.05;;;0.13;;
80836;SDS011;70251;60.008;30.404;2024-02-04T04:11:40;3.00;;;0.30;;
80836;SDS011;70251;60.008;30.404;2024-02-04T04:14:06;4.68;;;0.30;;
80836;SDS011;70251;60.008;30.404;2024-02-04T04:16:31;6.95;;;0.38;;
80836;SDS011;70251;60.008;30.404;2024-02-04T04:18:57;2.33;;;0.20;;
80836;SDS011;70251;60.008;30.404;2024-02-04T04:21:31;3.08;;;0.20;;
80836;SDS011;70251;60.008;30.404;2024-02-04T04:23:56;3.03;;;0.20;;
80836;SDS011;70251;60.008;30.404;2024-02-04T04:26:22;3.10;;;0.27;;
80836;SDS011;70251;60.008;30.404;2024-02-04T04:28:48;1.33;;;0.07;;
80836;SDS011;70251;60.008;30.404;2024-02-04T04:31:13;8.40;;;0.40;;
80836;SDS011;70251;60.008;30.404;2024-02-04T04:33:39;1.23;;;0.10;;
80836;SDS011;70251;60.008;30.404;2024-02-04T04:36:04;2.95;;;0.30;;
80836;SDS011;70251;60.008;30.404;2024-02-04T04:38:30;3.67;;;0.30;;
80836;SDS011;70251;60.008;30.404;2024-02-04T04:40:57;3.27;;;0.20;;
80836;SDS011;70251;60.008;30.404;2024-02-04T04:43:23;3.55;;;0.20;;
80836;SDS011;70251;60.008;30.404;2024-02-04T04:45:48;4.25;;;0.20;;
80836;SDS011;70251;60.008;30.404;2024-02-04T04:48:15;2.53;;;0.20;;
80836;SDS011;70251;60.008;30.404;2024-02-04T04:50:41;1.70;;;0.10;;
80836;SDS011;70251;60.008;30.404;2024-02-04T04:53:07;2.55;;;0.10;;
80836;SDS011;70251;60.008;30.404;2024-02-04T04:55:32;4.07;;;0.20;;
80836;SDS011;70251;60.008;30.404;2024-02-04T04:57:58;1.65;;;0.10;;
80836;SDS011;70251;60.008;30.404;2024-02-04T05:00:25;2.10;;;0.20;;
80836;SDS011;70251;60.008;30.404;2024-02-04T05:02:51;6.57;;;0.50;;
80836;SDS011;70251;60.008;30.404;2024-02-04T05:05:16;4.17;;;0.30;;
80836;SDS011;70251;60.008;30.404;2024-02-04T05:07:42;4.53;;;0.20;;
80836;SDS011;70251;60.008;30.404;2024-02-04T05:10:08;4.50;;;0.40;;
80836;SDS011;70251;60.008;30.404;2024-02-04T05:12:35;3.45;;;0.40;;
80836;SDS011;70251;60.008;30.404;2024-02-04T05:15:01;3.10;;;0.40;;
80836;SDS011;70251;60.008;30.404;2024-02-04T05:17:30;2.63;;;0.20;;
80836;SDS011;70251;60.008;30.404;2024-02-04T05:19:57;1.63;;;0.10;;
80836;SDS011;70251;60.008;30.404;2024-02-04T05:22:22;6.60;;;0.47;;
80836;SDS011;70251;60.008;30.404;2024-02-04T05:24:48;4.63;;;0.40;;
80836;SDS011;70251;60.008;30.404;2024-02-04T05:27:13;6.60;;;0.67;;
80836;SDS011;70251;60.008;30.404;2024-02-04T05:29:39;3.87;;;0.30;;
80836;SDS011;70251;60.008;30.404;2024-02-04T05:32:10;6.37;;;0.60;;
80836;SDS011;70251;60.008;30.404;2024-02-04T05:34:36;3.47;;;0.20;;
80836;SDS011;70251;60.008;30.404;2024-02-04T05:37:02;3.38;;;0.40;;
80836;SDS011;70251;60.008;30.404;2024-02-04T05:39:28;2.07;;;0.20;;
80836;SDS011;70251;60.008;30.404;2024-02-04T05:41:54;6.55;;;0.30;;
80836;SDS011;70251;60.008;30.404;2024-02-04T05:44:20;6.00;;;0.50;;
80836;SDS011;70251;60.008;30.404;2024-02-04T05:46:45;4.37;;;0.50;;
80836;SDS011;70251;60.008;30.404;2024-02-04T05:49:11;4.68;;;0.55;;
80836;SDS011;70251;60.008;30.404;2024-02-04T05:51:38;5.63;;;0.47;;
80836;SDS011;70251;60.008;30.404;2024-02-04T05:54:05;3.70;;;0.32;;
80836;SDS011;70251;60.008;30.404;2024-02-04T05:56:32;5.05;;;0.55;;
80836;SDS011;70251;60.008;30.404;2024-02-04T05:58:58;7.33;;;0.93;;
80836;SDS011;70251;60.008;30.404;2024-02-04T06:01:24;6.55;;;0.90;;
80836;SDS011;70251;60.008;30.404;2024-02-04T06:03:49;2.97;;;0.47;;
80836;SDS011;70251;60.008;30.404;2024-02-04T06:06:15;4.18;;;0.85;;
80836;SDS011;70251;60.008;30.404;2024-02-04T06:08:42;8.55;;;1.55;;
80836;SDS011;70251;60.008;30.404;2024-02-04T06:11:19;8.73;;;1.45;;
80836;SDS011;70251;60.008;30.404;2024-02-04T06:13:45;4.07;;;0.77;;
80836;SDS011;70251;60.008;30.404;2024-02-04T06:16:11;8.02;;;1.60;;
80836;SDS011;70251;60.008;30.404;2024-02-04T06:18:40;8.55;;;1.63;;
80836;SDS011;70251;60.008;30.404;2024-02-04T06:21:09;7.70;;;1.80;;
80836;SDS011;70251;60.008;30.404;2024-02-04T06:23:38;9.63;;;1.43;;
80836;SDS011;70251;60.008;30.404;2024-02-04T06:26:06;7.90;;;1.70;;
80836;SDS011;70251;60.008;30.404;2024-02-04T06:28:50;6.78;;;1.60;;
80836;SDS011;70251;60.008;30.404;2024-02-04T06:31:16;7.03;;;1.50;;
80836;SDS011;70251;60.008;30.404;2024-02-04T06:33:42;8.53;;;1.70;;
80836;SDS011;70251;60.008;30.404;2024-02-04T06:36:10;9.33;;;2.37;;
80836;SDS011;70251;60.008;30.404;2024-02-04T06:38:36;8.93;;;1.77;;
80836;SDS011;70251;60.008;30.404;2024-02-04T06:41:02;7.50;;;1.70;;
80836;SDS011;70251;60.008;30.404;2024-02-04T06:43:29;11.13;;;1.88;;
80836;SDS011;70251;60.008;30.404;2024-02-04T06:45:57;9.27;;;2.13;;
80836;SDS011;70251;60.008;30.404;2024-02-04T06:48:26;10.90;;;2.47;;
80836;SDS011;70251;60.008;30.404;2024-02-04T06:51:01;8.77;;;2.60;;
80836;SDS011;70251;60.008;30.404;2024-02-04T06:53:30;11.10;;;2.15;;
80836;SDS011;70251;60.008;30.404;2024-02-04T06:56:18;9.38;;;1.90;;
80836;SDS011;70251;60.008;30.404;2024-02-04T06:58:45;11.47;;;2.67;;
80836;SDS011;70251;60.008;30.404;2024-02-04T07:01:17;10.73;;;2.60;;
80836;SDS011;70251;60.008;30.404;2024-02-04T07:03:44;10.63;;;2.58;;
80836;SDS011;70251;60.008;30.404;2024-02-04T07:06:10;10.70;;;2.42;;
80836;SDS011;70251;60.008;30.404;2024-02-04T07:08:36;9.23;;;2.22;;
80836;SDS011;70251;60.008;30.404;2024-02-04T07:11:02;10.37;;;2.50;;
80836;SDS011;70251;60.008;30.404;2024-02-04T07:13:29;10.75;;;2.08;;
80836;SDS011;70251;60.008;30.404;2024-02-04T07:15:58;10.93;;;2.50;;
80836;SDS011;70251;60.008;30.404;2024-02-04T07:18:27;9.48;;;2.70;;
80836;SDS011;70251;60.008;30.404;2024-02-04T07:20:56;11.13;;;2.90;;
80836;SDS011;70251;60.008;30.404;2024-02-04T07:23:22;13.20;;;2.30;;
80836;SDS011;70251;60.008;30.404;2024-02-04T07:25:47;8.73;;;2.28;;
80836;SDS011;70251;60.008;30.404;2024-02-04T07:28:15;8.97;;;1.70;;
80836;SDS011;70251;60.008;30.404;2024-02-04T07:30:41;12.32;;;1.80;;
80836;SDS011;70251;60.008;30.404;2024-02-04T07:33:10;7.88;;;2.10;;
80836;SDS011;70251;60.008;30.404;2024-02-04T07:35:35;7.90;;;1.40;;
80836;SDS011;70251;60.008;30.404;2024-02-04T07:38:01;8.18;;;2.20;;
80836;SDS011;70251;60.008;30.404;2024-02-04T07:40:28;10.77;;;1.88;;
80836;SDS011;70251;60.008;30.404;2024-02-04T07:43:00;7.77;;;1.83;;
80836;SDS011;70251;60.008;30.404;2024-02-04T07:45:26;7.55;;;1.48;;
80836;SDS011;70251;60.008;30.404;2024-02-04T07:47:52;8.43;;;1.52;;
80836;SDS011;70251;60.008;30.404;2024-02-04T07:50:17;9.67;;;1.97;;
80836;SDS011;70251;60.008;30.404;2024-02-04T07:52:43;7.28;;;1.30;;
80836;SDS011;70251;60.008;30.404;2024-02-04T07:55:09;6.03;;;1.10;;
80836;SDS011;70251;60.008;30.404;2024-02-04T08:00:19;5.20;;;0.82;;
80836;SDS011;70251;60.008;30.404;2024-02-04T08:02:45;8.70;;;1.00;;
80836;SDS011;70251;60.008;30.404;2024-02-04T08:05:12;4.75;;;0.80;;
80836;SDS011;70251;60.008;30.404;2024-02-04T08:07:38;5.53;;;1.00;;
80836;SDS011;70251;60.008;30.404;2024-02-04T08:10:04;4.13;;;0.50;;
80836;SDS011;70251;60.008;30.404;2024-02-04T08:12:30;5.37;;;0.53;;
80836;SDS011;70251;60.008;30.404;2024-02-04T08:14:56;6.57;;;0.90;;
80836;SDS011;70251;60.008;30.404;2024-02-04T08:17:22;6.77;;;1.30;;
80836;SDS011;70251;60.008;30.404;2024-02-04T08:19:47;5.78;;;0.90;;
80836;SDS011;70251;60.008;30.404;2024-02-04T08:22:13;3.77;;;0.50;;
80836;SDS011;70251;60.008;30.404;2024-02-04T08:24:39;4.32;;;0.60;;
80836;SDS011;70251;60.008;30.404;2024-02-04T08:27:05;4.95;;;0.80;;
80836;SDS011;70251;60.008;30.404;2024-02-04T08:29:30;4.57;;;0.80;;
80836;SDS011;70251;60.008;30.404;2024-02-04T08:31:56;4.72;;;0.73;;
80836;SDS011;70251;60.008;30.404;2024-02-04T08:34:22;2.53;;;0.10;;
80836;SDS011;70251;60.008;30.404;2024-02-04T08:36:51;6.93;;;0.73;;
80836;SDS011;70251;60.008;30.404;2024-02-04T08:39:17;2.83;;;0.32;;
80836;SDS011;70251;60.008;30.404;2024-02-04T08:41:43;3.93;;;1.13;;
80836;SDS011;70251;60.008;30.404;2024-02-04T08:44:09;3.85;;;0.40;;
80836;SDS011;70251;60.008;30.404;2024-02-04T08:46:34;2.67;;;0.30;;
80836;SDS011;70251;60.008;30.404;2024-02-04T08:49:00;7.33;;;1.07;;
80836;SDS011;70251;60.008;30.404;2024-02-04T08:51:44;5.50;;;0.65;;
80836;SDS011;70251;60.008;30.404;2024-02-04T08:54:28;4.10;;;0.45;;
80836;SDS011;70251;60.008;30.404;2024-02-04T08:56:54;3.47;;;0.50;;
80836;SDS011;70251;60.008;30.404;2024-02-04T08:59:20;1.93;;;0.20;;
80836;SDS011;70251;60.008;30.404;2024-02-04T09:01:45;4.07;;;0.33;;
80836;SDS011;70251;60.008;30.404;2024-02-04T09:04:11;3.83;;;0.30;;
80836;SDS011;70251;60.008;30.404;2024-02-04T09:06:37;4.43;;;0.30;;
80836;SDS011;70251;60.008;30.404;2024-02-04T09:09:02;2.78;;;0.20;;
80836;SDS011;70251;60.008;30.404;2024-02-04T09:11:29;3.55;;;0.20;;
80836;SDS011;70251;60.008;30.404;2024-02-04T09:13:55;3.63;;;0.37;;
80836;SDS011;70251;60.008;30.404;2024-02-04T09:16:21;4.95;;;0.40;;
80836;SDS011;70251;60.008;30.404;2024-02-04T09:18:46;5.50;;;0.10;;
80836;SDS011;70251;60.008;30.404;2024-02-04T09:21:13;2.90;;;0.10;;
80836;SDS011;70251;60.008;30.404;2024-02-04T09:23:39;4.80;;;0.30;;
80836;SDS011;70251;60.008;30.404;2024-02-04T09:26:10;2.83;;;0.37;;
80836;SDS011;70251;60.008;30.404;2024-02-04T09:28:37;3.95;;;0.20;;
80836;SDS011;70251;60.008;30.404;2024-02-04T09:31:03;3.90;;;0.35;;
80836;SDS011;70251;60.008;30.404;2024-02-04T09:33:29;3.90;;;0.50;;
80836;SDS011;70251;60.008;30.404;2024-02-04T09:35:55;3.13;;;0.23;;
80836;SDS011;70251;60.008;30.404;2024-02-04T09:38:23;3.65;;;0.20;;
80836;SDS011;70251;60.008;30.404;2024-02-04T09:40:48;1.55;;;0.10;;
80836;SDS011;70251;60.008;30.404;2024-02-04T09:43:15;1.45;;;0.00;;
80836;SDS011;70251;60.008;30.404;2024-02-04T09:45:41;3.50;;;0.20;;
80836;SDS011;70251;60.008;30.404;2024-02-04T09:48:08;2.10;;;0.10;;
80836;SDS011;70251;60.008;30.404;2024-02-04T09:50:34;2.83;;;0.17;;
80836;SDS011;70251;60.008;30.404;2024-02-04T09:53:00;3.53;;;0.30;;
80836;SDS011;70251;60.008;30.404;2024-02-04T09:55:32;4.57;;;0.65;;
80836;SDS011;70251;60.008;30.404;2024-02-04T09:57:58;3.72;;;0.30;;
80836;SDS011;70251;60.008;30.404;2024-02-04T10:00:24;1.70;;;0.13;;
80836;SDS011;70251;60.008;30.404;2024-02-04T10:03:10;2.33;;;0.00;;
80836;SDS011;70251;60.008;30.404;2024-02-04T10:05:40;3.10;;;0.20;;
80836;SDS011;70251;60.008;30.404;2024-02-04T10:08:07;1.48;;;0.10;;
80836;SDS011;70251;60.008;30.404;2024-02-04T10:10:45;2.60;;;0.13;;
80836;SDS011;70251;60.008;30.404;2024-02-04T10:13:13;4.07;;;0.10;;
80836;SDS011;70251;60.008;30.404;2024-02-04T10:15:38;2.97;;;0.10;;
80836;SDS011;70251;60.008;30.404;2024-02-04T10:18:05;2.05;;;0.10;;
80836;SDS011;70251;60.008;30.404;2024-02-04T10:20:32;4.22;;;0.10;;
80836;SDS011;70251;60.008;30.404;2024-02-04T10:22:58;2.63;;;0.10;;
80836;SDS011;70251;60.008;30.404;2024-02-04T10:25:24;3.73;;;0.20;;
80836;SDS011;70251;60.008;30.404;2024-02-04T10:27:53;2.30;;;0.20;;
80836;SDS011;70251;60.008;30.404;2024-02-04T10:30:38;4.18;;;0.10;;
80836;SDS011;70251;60.008;30.404;2024-02-04T10:33:05;2.88;;;0.20;;
80836;SDS011;70251;60.008;30.404;2024-02-04T10:35:30;4.38;;;0.20;;
80836;SDS011;70251;60.008;30.404;2024-02-04T10:37:56;3.40;;;0.20;;
80836;SDS011;70251;60.008;30.404;2024-02-04T10:40:22;3.03;;;0.10;;
80836;SDS011;70251;60.008;30.404;2024-02-04T10:43:21;2.47;;;0.20;;
80836;SDS011;70251;60.008;30.404;2024-02-04T10:45:49;5.83;;;0.10;;
80836;SDS011;70251;60.008;30.404;2024-02-04T10:48:23;3.75;;;0.30;;
80836;SDS011;70251;60.008;30.404;2024-02-04T10:50:50;2.00;;;0.20;;
80836;SDS011;70251;60.008;30.404;2024-02-04T10:53:19;4.43;;;0.20;;
80836;SDS011;70251;60.008;30.404;2024-02-04T10:55:47;3.50;;;0.20;;
80836;SDS011;70251;60.008;30.404;2024-02-04T10:58:19;2.53;;;0.10;;
80836;SDS011;70251;60.008;30.404;2024-02-04T11:00:45;1.95;;;0.10;;
80836;SDS011;70251;60.008;30.404;2024-02-04T11:03:11;2.83;;;0.28;;
80836;SDS011;70251;60.008;30.404;2024-02-04T11:05:40;3.53;;;0.28;;
80836;SDS011;70251;60.008;30.404;2024-02-04T11:08:10;3.22;;;0.10;;
80836;SDS011;70251;60.008;30.404;2024-02-04T11:10:37;3.40;;;0.47;;
80836;SDS011;70251;60.008;30.404;2024-02-04T11:13:05;1.85;;;0.10;;
80836;SDS011;70251;60.008;30.404;2024-02-04T11:15:35;3.38;;;0.17;;
80836;SDS011;70251;60.008;30.404;2024-02-04T11:18:13;4.13;;;0.35;;
80836;SDS011;70251;60.008;30.404;2024-02-04T11:26:17;3.92;;;0.17;;
80836;SDS011;70251;60.008;30.404;2024-02-04T11:28:44;1.58;;;0.08;;
80836;SDS011;70251;60.008;30.404;2024-02-04T11:31:28;4.32;;;0.22;;
80836;SDS011;70251;60.008;30.404;2024-02-04T11:33:55;2.40;;;0.10;;
80836;SDS011;70251;60.008;30.404;2024-02-04T11:36:25;2.50;;;0.10;;
80836;SDS011;70251;60.008;30.404;2024-02-04T11:39:00;4.97;;;0.22;;
80836;SDS011;70251;60.008;30.404;2024-02-04T11:41:47;1.35;;;0.00;;
80836;SDS011;70251;60.008;30.404;2024-02-04T11:44:22;3.47;;;0.20;;
80836;SDS011;70251;60.008;30.404;2024-02-04T11:46:54;4.20;;;0.30;;
80836;SDS011;70251;60.008;30.404;2024-02-04T11:49:27;3.57;;;0.40;;
80836;SDS011;70251;60.008;30.404;2024-02-04T11:51:56;2.60;;;0.10;;
80836;SDS011;70251;60.008;30.404;2024-02-04T11:54:26;4.25;;;0.35;;
80836;SDS011;70251;60.008;30.404;2024-02-04T11:56:52;1.38;;;0.17;;
80836;SDS011;70251;60.008;30.404;2024-02-04T11:59:24;1.95;;;0.03;;
80836;SDS011;70251;60.008;30.404;2024-02-04T12:04:47;1.58;;;0.00;;
80836;SDS011;70251;60.008;30.404;2024-02-04T12:07:14;4.95;;;0.20;;
80836;SDS011;70251;60.008;30.404;2024-02-04T12:09:41;2.28;;;0.17;;
80836;SDS011;70251;60.008;30.404;2024-02-04T12:12:10;4.07;;;0.20;;
80836;SDS011;70251;60.008;30.404;2024-02-04T12:14:45;2.70;;;0.10;;
80836;SDS011;70251;60.008;30.404;2024-02-04T12:17:11;2.95;;;0.20;;
80836;SDS011;70251;60.008;30.404;2024-02-04T12:19:37;3.40;;;0.10;;
80836;SDS011;70251;60.008;30.404;2024-02-04T12:22:04;1.85;;;0.15;;
80836;SDS011;70251;60.008;30.404;2024-02-04T12:24:38;1.57;;;0.20;;
80836;SDS011;70251;60.008;30.404;2024-02-04T12:27:04;3.35;;;0.10;;
80836;SDS011;70251;60.008;30.404;2024-02-04T12:29:31;2.20;;;0.03;;
80836;SDS011;70251;60.008;30.404;2024-02-04T12:31:59;3.58;;;0.20;;
80836;SDS011;70251;60.008;30.404;2024-02-04T12:34:25;1.95;;;0.10;;
80836;SDS011;70251;60.008;30.404;2024-02-04T12:37:00;3.00;;;0.03;;
80836;SDS011;70251;60.008;30.404;2024-02-04T12:39:27;2.38;;;0.10;;
80836;SDS011;70251;60.008;30.404;2024-02-04T12:41:53;3.05;;;0.10;;
80836;SDS011;70251;60.008;30.404;2024-02-04T12:44:19;4.70;;;0.10;;
80836;SDS011;70251;60.008;30.404;2024-02-04T12:46:45;5.28;;;0.30;;
80836;SDS011;70251;60.008;30.404;2024-02-04T12:49:21;3.55;;;0.22;;
80836;SDS011;70251;60.008;30.404;2024-02-04T12:51:48;2.47;;;0.10;;
80836;SDS011;70251;60.008;30.404;2024-02-04T12:54:17;3.03;;;0.00;;
80836;SDS011;70251;60.008;30.404;2024-02-04T12:56:47;4.87;;;0.53;;
80836;SDS011;70251;60.008;30.404;2024-02-04T13:01:55;2.95;;;0.00;;
80836;SDS011;70251;60.008;30.404;2024-02-04T13:04:22;1.98;;;0.10;;
80836;SDS011;70251;60.008;30.404;2024-02-04T13:06:48;2.95;;;0.20;;
80836;SDS011;70251;60.008;30.404;2024-02-04T13:09:15;3.00;;;0.10;;
80836;SDS011;70251;60.008;30.404;2024-02-04T13:11:41;2.33;;;0.10;;
80836;SDS011;70251;60.008;30.404;2024-02-04T13:14:08;1.42;;;0.00;;
80836;SDS011;70251;60.008;30.404;2024-02-04T13:16:34;3.03;;;0.10;;
80836;SDS011;70251;60.008;30.404;2024-02-04T13:19:04;5.25;;;0.17;;
80836;SDS011;70251;60.008;30.404;2024-02-04T13:21:30;2.35;;;0.10;;
80836;SDS011;70251;60.008;30.404;2024-02-04T13:23:56;1.25;;;0.10;;
80836;SDS011;70251;60.008;30.404;2024-02-04T13:26:22;2.53;;;0.10;;
80836;SDS011;70251;60.008;30.404;2024-02-04T13:28:48;3.05;;;0.00;;
80836;SDS011;70251;60.008;30.404;2024-02-04T13:31:14;1.27;;;0.22;;
80836;SDS011;70251;60.008;30.404;2024-02-04T13:33:40;2.40;;;0.30;;
80836;SDS011;70251;60.008;30.404;2024-02-04T13:36:07;4.47;;;0.10;;
80836;SDS011;70251;60.008;30.404;2024-02-04T13:38:35;1.33;;;0.00;;
80836;SDS011;70251;60.008;30.404;2024-02-04T13:41:02;4.28;;;0.20;;
80836;SDS011;70251;60.008;30.404;2024-02-04T13:43:31;1.85;;;0.08;;
80836;SDS011;70251;60.008;30.404;2024-02-04T13:45:57;2.47;;;0.03;;
80836;SDS011;70251;60.008;30.404;2024-02-04T13:48:27;2.45;;;0.15;;
80836;SDS011;70251;60.008;30.404;2024-02-04T13:50:53;1.70;;;0.10;;
80836;SDS011;70251;60.008;30.404;2024-02-04T13:53:23;2.28;;;0.08;;
80836;SDS011;70251;60.008;30.404;2024-02-04T13:55:49;4.65;;;0.20;;
80836;SDS011;70251;60.008;30.404;2024-02-04T13:58:33;2.83;;;0.30;;
80836;SDS011;70251;60.008;30.404;2024-02-04T14:00:58;2.47;;;0.13;;
80836;SDS011;70251;60.008;30.404;2024-02-04T14:03:25;3.80;;;0.10;;
80836;SDS011;70251;60.008;30.404;2024-02-04T14:05:50;3.70;;;0.30;;
80836;SDS011;70251;60.008;30.404;2024-02-04T14:08:17;5.07;;;0.20;;
80836;SDS011;70251;60.008;30.404;2024-02-04T14:10:42;5.80;;;0.20;;
80836;SDS011;70251;60.008;30.404;2024-02-04T14:13:08;1.57;;;0.10;;
80836;SDS011;70251;60.008;30.404;2024-02-04T14:15:33;2.33;;;0.10;;
80836;SDS011;70251;60.008;30.404;2024-02-04T14:17:59;2.57;;;0.10;;
80836;SDS011;70251;60.008;30.404;2024-02-04T14:20:25;3.17;;;0.63;;
80836;SDS011;70251;60.008;30.404;2024-02-04T14:22:52;4.68;;;0.25;;
80836;SDS011;70251;60.008;30.404;2024-02-04T14:25:18;2.15;;;0.00;;
80836;SDS011;70251;60.008;30.404;2024-02-04T14:27:44;0.43;;;0.00;;
80836;SDS011;70251;60.008;30.404;2024-02-04T14:30:12;3.15;;;0.30;;
80836;SDS011;70251;60.008;30.404;2024-02-04T14:32:38;3.35;;;0.10;;
80836;SDS011;70251;60.008;30.404;2024-02-04T14:35:03;2.67;;;0.20;;
80836;SDS011;70251;60.008;30.404;2024-02-04T14:37:31;3.10;;;0.20;;
80836;SDS011;70251;60.008;30.404;2024-02-04T14:40:00;4.47;;;0.32;;
80836;SDS011;70251;60.008;30.404;2024-02-04T14:42:26;4.60;;;0.20;;
80836;SDS011;70251;60.008;30.404;2024-02-04T14:44:54;2.53;;;0.10;;
80836;SDS011;70251;60.008;30.404;2024-02-04T14:47:20;1.73;;;0.10;;
80836;SDS011;70251;60.008;30.404;2024-02-04T14:49:46;1.58;;;0.00;;
80836;SDS011;70251;60.008;30.404;2024-02-04T14:52:22;3.80;;;0.20;;
80836;SDS011;70251;60.008;30.404;2024-02-04T14:54:47;2.42;;;0.10;;
80836;SDS011;70251;60.008;30.404;2024-02-04T14:57:13;1.93;;;0.00;;
80836;SDS011;70251;60.008;30.404;2024-02-04T14:59:39;5.40;;;0.15;;
80836;SDS011;70251;60.008;30.404;2024-02-04T15:02:05;3.72;;;0.10;;